SBMO/MCZ METAR and TAF weather

Enter ICAO airport designator
Station Type Date Time Source
SBMO METAR 2019/04/19 08:00 UTC NOAA

SBMO 190800Z 32004KT CAVOK 22/21 Q1012


Station Type Date Time Source
SBMO Decoded METAR 2019/04/19 08:00 UTC NOAA

Maceio Aeroporto , Brazil (SBMO) 09-31S 035-47W 115M
Apr 19, 2019 - 04:00 AM EDT / 2019.04.19 0800 UTC
Wind: from the NW (320 degrees) at 5 MPH (4 KT):0
Visibility: greater than 7 mile(s):0
Temperature: 71 F (22 C)
Dew Point: 69 F (21 C)
Relative Humidity: 94%
Pressure (altimeter): 29.88 in. Hg (1012 hPa)
ob: SBMO 190800Z 32004KT CAVOK 22/21 Q1012
cycle: 8

Station Type Date Time Source
SBMO TAF 2019/04/19 06:54 UTC NOAA

TAF TAF SBMO 190400Z 1906/2006 33005KT 9999 FEW020 TN23/1907Z TX31/1916Z
BECMG 1912/1914 10008KT SCT020
BECMG 1915/1917 15010KT SCT025
BECMG 1920/1 922 06006KT CAVOK
BECMG 1903/1905 33005KT 9999 FEW020
RMK PAZ

Example: see airport list